Pagina principale
METAR-TAF:

METAR-TAF

Aeroporti :

Beauvechain, Belgio

latitudine: 50-45N, longitudine: 004-46E, altezza: 105 m

Osservazione

Il bollettino è stato emesso 28 minuti fa, alle 06:09 UTC
Vento 5 kt da nord-ovest
Temperature 3°C
Umidità 100%
Pressione 1009 hPa
Visibilità: 9000 m
Nubi sparse ad un'altezza di 1700 ft
Nuvoloso ad un'altezza di 5000 ft

METAR: EBBE 180609Z 31005KT 9000 SCT017 BKN050 03/03 Q1009 WHT WHT TEMPO GRN

Ora: 07:37 (06:37 UTC)

Previsione

Il bollettino è stato emesso 56 minuti fa, alle 05:41 UTC
Previsione valida dal 18 alle 07 UTC al 18 alle 16 UTC
Vento 6 kt da nord-ovest
Visibilità: 8000 m
Nuvoloso ad un'altezza di 2000 ft
pioggia debole
Temporaneamente
dal 18 alle 07 UTC al 18 alle 16 UTC
Visibilità: 4000 m
Nuvoloso ad un'altezza di 1500 ft
pioggia
Temporaneamente
dal 18 alle 07 UTC al 18 alle 16 UTC
Visibilità: 3000 m
pioggia

TAF: EBBE 180541Z 1807/1816 32006KT 8000 -RA BKN020 TEMPO 1807/1816 4000 RA BKN015 TEMPO 1807/1816 3000 RA

Osservazioni e previsioni meteorologiche di più di 4000 aeroporti (messaggi METAR e TAF).

Le stazioni disponibili sono rappresentate dai dischi gialli e rossi sulla carta.

Puntare il mouse per vedere il nome della stazione.

Clicca sopra per visualizzare le osservazioni e previsioni meteorologiche.

Per cambiare la mappa : fare clic sui pulsanti verdi con una croce nera per ingrandire, il pulsante verde con un trattino per diminuire, o sulla freccia verde per le mappe adiacenti.


METAR-TAF: